createdAt,value
2023-05-14T00:00:16.764Z,0.00
2023-05-14T00:01:17.127Z,0.00
2023-05-14T00:02:17.602Z,0.00
2023-05-14T00:03:17.935Z,0.00
2023-05-14T00:04:18.356Z,0.00
2023-05-14T00:05:18.654Z,0.00
2023-05-14T00:06:18.944Z,0.00
2023-05-14T00:07:19.312Z,0.00
2023-05-14T00:08:19.681Z,0.00
2023-05-14T00:09:20.068Z,0.00
2023-05-14T00:10:20.512Z,0.00
2023-05-14T00:11:20.776Z,0.00
2023-05-14T00:12:21.158Z,0.00
2023-05-14T00:13:21.490Z,0.00
2023-05-14T00:14:21.907Z,0.00
2023-05-14T00:15:22.214Z,0.00
2023-05-14T00:16:22.650Z,0.00
2023-05-14T00:17:22.945Z,0.00
2023-05-14T00:18:23.348Z,0.00
2023-05-14T00:19:23.721Z,0.00
2023-05-14T00:20:24.241Z,0.00
2023-05-14T00:21:24.414Z,0.00
2023-05-14T00:22:24.775Z,0.00
2023-05-14T00:23:25.149Z,0.00
2023-05-14T00:24:25.530Z,0.00
2023-05-14T00:25:25.982Z,0.00
2023-05-14T00:26:26.230Z,0.00
2023-05-14T00:27:26.592Z,0.00
2023-05-14T00:28:26.956Z,0.00
2023-05-14T00:29:27.314Z,0.00
2023-05-14T00:30:27.736Z,0.00
2023-05-14T00:31:28.130Z,0.00
2023-05-14T00:32:28.438Z,0.00
2023-05-14T00:33:28.777Z,0.00
2023-05-14T00:34:29.184Z,0.00
2023-05-14T00:35:29.544Z,0.00
2023-05-14T00:36:29.891Z,0.00
2023-05-14T00:37:30.268Z,0.00
2023-05-14T00:38:30.616Z,0.00
2023-05-14T00:39:30.960Z,0.00
2023-05-14T00:40:31.294Z,0.00
2023-05-14T00:41:31.657Z,0.00
2023-05-14T00:42:32.003Z,0.00
2023-05-14T00:43:32.350Z,0.00
2023-05-14T00:44:32.754Z,0.00
2023-05-14T00:45:33.063Z,0.00
2023-05-14T00:46:33.512Z,0.00
2023-05-14T00:47:33.864Z,0.00
2023-05-14T00:48:34.159Z,0.00
2023-05-14T00:49:34.545Z,0.00
2023-05-14T00:50:34.848Z,0.00
2023-05-14T00:51:35.200Z,0.00
2023-05-14T00:52:35.590Z,0.00
2023-05-14T00:53:35.885Z,0.00
2023-05-14T00:54:36.277Z,0.00
2023-05-14T00:55:36.620Z,0.00
2023-05-14T00:56:36.960Z,0.00
2023-05-14T00:57:37.317Z,0.00
2023-05-14T00:58:37.662Z,0.00
2023-05-14T00:59:38.057Z,0.00
2023-05-14T01:00:38.377Z,0.00
2023-05-14T01:01:38.720Z,0.00
2023-05-14T01:02:39.133Z,0.00
2023-05-14T01:03:39.527Z,0.00
2023-05-14T01:04:39.770Z,0.00
2023-05-14T01:05:40.125Z,0.00
2023-05-14T01:06:40.494Z,0.00
2023-05-14T01:07:40.835Z,0.00
2023-05-14T01:08:41.217Z,0.00
2023-05-14T01:09:41.582Z,0.00
2023-05-14T01:10:41.891Z,0.00
2023-05-14T01:11:42.248Z,0.00
2023-05-14T01:12:42.576Z,0.00
2023-05-14T01:13:42.912Z,0.00
2023-05-14T01:14:43.339Z,0.00
2023-05-14T01:15:43.634Z,0.00
2023-05-14T01:16:44.044Z,0.00
2023-05-14T01:17:44.382Z,0.00
2023-05-14T01:18:44.680Z,0.00
2023-05-14T01:19:45.041Z,0.00
2023-05-14T01:20:45.380Z,0.00
2023-05-14T01:21:45.732Z,0.00
2023-05-14T01:22:46.094Z,0.00
2023-05-14T01:23:46.453Z,0.00
2023-05-14T01:24:46.827Z,0.00
2023-05-14T01:25:47.186Z,0.00
2023-05-14T01:26:47.589Z,0.00
2023-05-14T01:27:47.877Z,0.00
2023-05-14T01:28:48.239Z,0.00
2023-05-14T01:29:48.613Z,0.00
2023-05-14T01:30:48.984Z,0.00
2023-05-14T01:31:49.343Z,0.00
2023-05-14T01:32:49.802Z,0.00
2023-05-14T01:33:50.029Z,0.00
2023-05-14T01:34:50.392Z,0.00
2023-05-14T01:35:50.766Z,0.00
2023-05-14T01:36:51.131Z,0.00
2023-05-14T01:37:51.459Z,0.00
2023-05-14T01:38:51.863Z,0.00
2023-05-14T01:39:52.168Z,0.00
2023-05-14T01:40:52.546Z,0.00
2023-05-14T01:41:52.906Z,0.00
2023-05-14T01:42:53.266Z,0.00
2023-05-14T01:43:53.616Z,0.00
2023-05-14T01:44:53.957Z,0.00
2023-05-14T01:45:54.460Z,0.00
2023-05-14T01:46:54.664Z,0.00
2023-05-14T01:47:55.041Z,0.00
2023-05-14T01:48:55.425Z,0.00
2023-05-14T01:49:55.797Z,0.00
2023-05-14T01:50:56.088Z,0.00
2023-05-14T01:51:56.441Z,0.00
2023-05-14T01:52:57.010Z,0.00
2023-05-14T01:53:57.150Z,0.00
2023-05-14T01:54:57.506Z,0.00
2023-05-14T01:55:57.855Z,0.00
2023-05-14T01:56:58.189Z,0.00
2023-05-14T01:57:58.636Z,0.00
2023-05-14T01:58:58.885Z,0.00
2023-05-14T01:59:59.257Z,0.00
2023-05-14T02:00:59.638Z,0.00
2023-05-14T02:02:00.022Z,0.00
2023-05-14T02:03:00.337Z,0.00
2023-05-14T02:04:00.661Z,0.00
2023-05-14T02:05:01.014Z,0.00
2023-05-14T02:06:01.331Z,0.00
2023-05-14T02:07:01.679Z,0.00
2023-05-14T02:08:02.056Z,0.00
2023-05-14T02:09:02.417Z,0.00
2023-05-14T02:10:02.797Z,0.00
2023-05-14T02:11:03.120Z,0.00
2023-05-14T02:12:03.467Z,0.00
2023-05-14T02:13:03.861Z,0.00
2023-05-14T02:14:04.221Z,0.00
2023-05-14T02:15:04.563Z,0.00
2023-05-14T02:16:04.971Z,0.00
2023-05-14T02:17:05.298Z,0.00
2023-05-14T02:18:05.680Z,0.00
2023-05-14T02:19:06.057Z,0.00
2023-05-14T02:20:06.402Z,0.00
2023-05-14T02:21:06.800Z,0.00
2023-05-14T02:22:07.140Z,0.00
2023-05-14T02:23:07.488Z,0.00
2023-05-14T02:24:07.876Z,0.00
2023-05-14T02:25:08.250Z,0.00
2023-05-14T02:26:08.580Z,0.00
2023-05-14T02:27:08.956Z,0.00
2023-05-14T02:28:09.334Z,0.00
2023-05-14T02:29:09.662Z,0.00
2023-05-14T02:30:10.135Z,0.00
2023-05-14T02:31:10.495Z,0.00
2023-05-14T02:32:10.879Z,0.00
2023-05-14T02:33:11.289Z,0.00
2023-05-14T02:34:11.534Z,0.00
2023-05-14T02:35:11.943Z,0.00
2023-05-14T02:36:12.252Z,0.00
2023-05-14T02:37:12.530Z,0.00
2023-05-14T02:38:12.758Z,0.00
2023-05-14T02:39:13.060Z,0.00
2023-05-14T02:40:13.376Z,0.00
2023-05-14T02:41:13.619Z,0.00
2023-05-14T02:42:13.923Z,0.00
2023-05-14T02:43:14.336Z,0.00
2023-05-14T02:44:14.573Z,0.00
2023-05-14T02:45:14.869Z,0.00
2023-05-14T02:46:15.198Z,0.00
2023-05-14T02:47:15.394Z,0.00
2023-05-14T02:48:15.672Z,0.00
2023-05-14T02:49:15.990Z,0.00
2023-05-14T02:50:16.322Z,0.00
2023-05-14T02:51:16.511Z,0.00
2023-05-14T02:52:16.797Z,0.00
2023-05-14T02:53:17.139Z,0.00
2023-05-14T02:54:17.427Z,0.00
2023-05-14T02:55:17.561Z,0.00
2023-05-14T02:56:17.796Z,0.00
2023-05-14T02:57:18.131Z,0.00
2023-05-14T02:58:18.395Z,0.00
2023-05-14T02:59:18.564Z,0.00
2023-05-14T03:00:18.883Z,0.00
2023-05-14T03:01:19.211Z,0.00
2023-05-14T03:02:19.496Z,0.00
2023-05-14T03:03:19.736Z,0.00
2023-05-14T03:04:20.002Z,0.00
2023-05-14T03:05:20.273Z,0.00
2023-05-14T03:06:20.567Z,0.00
2023-05-14T03:07:20.869Z,0.00
2023-05-14T03:08:21.141Z,0.00
2023-05-14T03:09:21.422Z,0.00
2023-05-14T03:10:22.041Z,0.00
2023-05-14T03:11:21.892Z,0.00
2023-05-14T03:12:22.148Z,5.62
2023-05-14T03:13:22.322Z,5.62
2023-05-14T03:14:22.609Z,5.62
2023-05-14T03:15:22.823Z,5.62
2023-05-14T03:16:23.090Z,5.62
2023-05-14T03:17:23.354Z,5.62
2023-05-14T03:18:23.605Z,5.62
2023-05-14T03:19:23.952Z,5.62
2023-05-14T03:20:24.362Z,11.25
2023-05-14T03:21:24.243Z,11.25
2023-05-14T03:22:24.568Z,11.25
2023-05-14T03:23:24.713Z,11.25
2023-05-14T03:24:24.901Z,11.25
2023-05-14T03:25:25.071Z,11.25
2023-05-14T03:26:25.248Z,16.88
2023-05-14T03:27:25.417Z,16.88
2023-05-14T03:28:25.595Z,16.88
2023-05-14T03:29:25.774Z,16.88
2023-05-14T03:30:26.242Z,22.50
2023-05-14T03:31:26.284Z,22.50
2023-05-14T03:32:26.306Z,22.50
2023-05-14T03:33:26.465Z,22.50
2023-05-14T03:34:26.761Z,28.12
2023-05-14T03:35:26.930Z,28.12
2023-05-14T03:36:27.070Z,28.12
2023-05-14T03:37:27.250Z,33.75
2023-05-14T03:38:27.448Z,33.75
2023-05-14T03:39:27.592Z,33.75
2023-05-14T03:40:27.787Z,39.38
2023-05-14T03:41:27.922Z,39.38
2023-05-14T03:42:28.143Z,45.00
2023-05-14T03:43:28.269Z,45.00
2023-05-14T03:44:28.435Z,45.00
2023-05-14T03:45:28.666Z,50.62
2023-05-14T03:46:28.776Z,50.62
2023-05-14T03:47:28.976Z,56.25
2023-05-14T03:48:29.192Z,56.25
2023-05-14T03:49:29.297Z,61.88
2023-05-14T03:50:29.585Z,67.50
2023-05-14T03:51:29.654Z,67.50
2023-05-14T03:52:29.976Z,73.12
2023-05-14T03:53:30.092Z,73.12
2023-05-14T03:54:30.269Z,78.75
2023-05-14T03:55:30.618Z,78.75
2023-05-14T03:56:30.872Z,84.38
2023-05-14T03:57:31.036Z,84.38
2023-05-14T03:58:31.201Z,90.00
2023-05-14T03:59:31.372Z,90.00
2023-05-14T04:00:31.599Z,95.62
2023-05-14T04:01:31.742Z,95.62
2023-05-14T04:02:32.023Z,101.25
2023-05-14T04:03:32.465Z,101.25
2023-05-14T04:04:32.453Z,106.88
2023-05-14T04:05:32.720Z,106.88
2023-05-14T04:06:32.885Z,106.88
2023-05-14T04:07:33.182Z,106.88
2023-05-14T04:08:33.357Z,112.50
2023-05-14T04:09:33.656Z,112.50
2023-05-14T04:10:33.867Z,118.12
2023-05-14T04:11:34.039Z,118.12
2023-05-14T04:12:34.358Z,123.75
2023-05-14T04:13:34.553Z,135.00
2023-05-14T04:14:34.706Z,135.00
2023-05-14T04:15:35.039Z,140.62
2023-05-14T04:16:35.243Z,140.62
2023-05-14T04:17:35.440Z,146.25
2023-05-14T04:18:35.629Z,151.88
2023-05-14T04:19:35.771Z,151.88
2023-05-14T04:20:35.998Z,151.88
2023-05-14T04:21:36.164Z,157.50
2023-05-14T04:22:36.444Z,163.12
2023-05-14T04:23:36.551Z,168.75
2023-05-14T04:24:36.711Z,174.38
2023-05-14T04:25:36.934Z,174.38
2023-05-14T04:26:37.109Z,180.00
2023-05-14T04:27:37.268Z,180.00
2023-05-14T04:28:37.461Z,185.62
2023-05-14T04:29:37.658Z,191.25
2023-05-14T04:30:37.883Z,191.25
2023-05-14T04:31:38.061Z,196.88
2023-05-14T04:32:38.277Z,196.88
2023-05-14T04:33:38.386Z,202.50
2023-05-14T04:34:38.568Z,208.12
2023-05-14T04:35:38.761Z,208.12
2023-05-14T04:36:38.924Z,208.12
2023-05-14T04:37:39.129Z,213.75
2023-05-14T04:38:39.315Z,219.38
2023-05-14T04:39:39.520Z,219.38
2023-05-14T04:40:39.720Z,225.00
2023-05-14T04:41:39.915Z,225.00
2023-05-14T04:42:40.068Z,230.62
2023-05-14T04:43:40.274Z,230.62
2023-05-14T04:44:40.504Z,236.25
2023-05-14T04:45:40.716Z,236.25
2023-05-14T04:46:40.840Z,236.25
2023-05-14T04:47:41.010Z,241.88
2023-05-14T04:48:41.184Z,247.50
2023-05-14T04:49:41.421Z,247.50
2023-05-14T04:50:41.590Z,253.12
2023-05-14T04:51:41.730Z,264.38
2023-05-14T04:52:41.922Z,270.00
2023-05-14T04:53:42.127Z,275.62
2023-05-14T04:54:42.331Z,281.25
2023-05-14T04:55:42.496Z,275.62
2023-05-14T04:56:42.653Z,281.25
2023-05-14T04:57:42.856Z,286.88
2023-05-14T04:58:43.056Z,286.88
2023-05-14T04:59:43.405Z,286.88
2023-05-14T05:00:43.452Z,292.50
2023-05-14T05:01:43.671Z,292.50
2023-05-14T05:02:43.879Z,298.12
2023-05-14T05:03:44.042Z,315.00
2023-05-14T05:04:44.192Z,320.62
2023-05-14T05:05:44.384Z,320.62
2023-05-14T05:06:44.549Z,320.62
2023-05-14T05:07:44.741Z,320.62
2023-05-14T05:08:44.937Z,320.62
2023-05-14T05:09:45.134Z,326.25
2023-05-14T05:10:45.385Z,337.50
2023-05-14T05:11:45.513Z,343.12
2023-05-14T05:12:45.696Z,348.75
2023-05-14T05:13:45.911Z,348.75
2023-05-14T05:14:46.074Z,360.00
2023-05-14T05:15:46.323Z,354.38
2023-05-14T05:16:46.453Z,348.75
2023-05-14T05:17:46.723Z,348.75
2023-05-14T05:18:46.897Z,343.12
2023-05-14T05:19:47.090Z,326.25
2023-05-14T05:20:47.244Z,309.38
2023-05-14T05:21:47.475Z,303.75
2023-05-14T05:22:47.579Z,303.75
2023-05-14T05:23:47.760Z,303.75
2023-05-14T05:24:49.754Z,303.75
2023-05-14T05:25:48.129Z,303.75
2023-05-14T05:26:48.284Z,309.38
2023-05-14T05:27:48.498Z,309.38
2023-05-14T05:28:48.659Z,309.38
2023-05-14T05:29:48.894Z,315.00
2023-05-14T05:30:49.065Z,315.00
2023-05-14T05:31:49.378Z,320.62
2023-05-14T05:32:49.429Z,320.62
2023-05-14T05:33:49.591Z,320.62
2023-05-14T05:34:49.791Z,326.25
2023-05-14T05:35:50.020Z,326.25
2023-05-14T05:36:50.233Z,331.88
2023-05-14T05:37:50.354Z,337.50
2023-05-14T05:38:50.534Z,337.50
2023-05-14T05:39:50.751Z,343.12
2023-05-14T05:40:50.981Z,348.75
2023-05-14T05:41:51.131Z,348.75
2023-05-14T05:42:51.291Z,354.38
2023-05-14T05:43:51.526Z,354.38
2023-05-14T05:44:51.663Z,354.38
2023-05-14T05:45:51.893Z,354.38
2023-05-14T05:46:52.078Z,354.38
2023-05-14T05:47:52.262Z,360.00
2023-05-14T05:48:52.442Z,365.62
2023-05-14T05:49:52.634Z,371.25
2023-05-14T05:50:52.868Z,371.25
2023-05-14T05:51:52.986Z,371.25
2023-05-14T05:52:53.185Z,371.25
2023-05-14T05:53:53.381Z,371.25
2023-05-14T05:54:53.678Z,371.25
2023-05-14T05:55:53.792Z,365.62
2023-05-14T05:56:53.958Z,365.62
2023-05-14T05:57:54.180Z,360.00
2023-05-14T05:58:54.319Z,354.38
2023-05-14T05:59:54.493Z,354.38
2023-05-14T06:00:54.674Z,354.38
2023-05-14T06:01:54.905Z,354.38
2023-05-14T06:02:55.077Z,354.38
2023-05-14T06:03:55.222Z,354.38
2023-05-14T06:04:55.478Z,354.38
2023-05-14T06:05:55.625Z,354.38
2023-05-14T06:06:55.778Z,360.00
2023-05-14T06:07:55.986Z,360.00
2023-05-14T06:08:56.187Z,360.00
2023-05-14T06:09:56.370Z,360.00
2023-05-14T06:10:56.583Z,360.00
2023-05-14T06:11:56.730Z,360.00
2023-05-14T06:12:56.927Z,360.00
2023-05-14T06:13:57.118Z,360.00
2023-05-14T06:14:57.334Z,365.62
2023-05-14T06:15:57.525Z,365.62
2023-05-14T06:16:57.764Z,365.62
2023-05-14T06:17:57.896Z,365.62
2023-05-14T06:18:58.063Z,365.62
2023-05-14T06:19:58.246Z,371.25
2023-05-14T06:20:58.440Z,371.25
2023-05-14T06:21:58.599Z,376.88
2023-05-14T06:22:58.798Z,376.88
2023-05-14T06:23:58.963Z,382.50
2023-05-14T06:24:59.156Z,382.50
2023-05-14T06:25:59.371Z,376.88
2023-05-14T06:26:59.527Z,376.88
2023-05-14T06:27:59.731Z,376.88
2023-05-14T06:28:59.912Z,376.88
2023-05-14T06:30:00.156Z,376.88
2023-05-14T06:31:00.312Z,376.88
2023-05-14T06:32:00.629Z,382.50
2023-05-14T06:33:00.682Z,388.12
2023-05-14T06:34:00.828Z,393.75
2023-05-14T06:35:01.035Z,399.38
2023-05-14T06:36:01.343Z,405.00
2023-05-14T06:37:01.399Z,416.25
2023-05-14T06:38:01.594Z,421.88
2023-05-14T06:39:01.775Z,421.88
2023-05-14T06:40:01.996Z,427.50
2023-05-14T06:41:02.226Z,427.50
2023-05-14T06:42:02.331Z,427.50
2023-05-14T06:43:02.531Z,433.12
2023-05-14T06:44:02.691Z,433.12
2023-05-14T06:45:02.891Z,438.75
2023-05-14T06:46:03.125Z,438.75
2023-05-14T06:47:03.269Z,438.75
2023-05-14T06:48:03.513Z,444.38
2023-05-14T06:49:03.669Z,450.00
2023-05-14T06:50:03.818Z,450.00
2023-05-14T06:51:04.041Z,450.00
2023-05-14T06:52:04.205Z,455.62
2023-05-14T06:53:04.403Z,455.62
2023-05-14T06:54:04.578Z,455.62
2023-05-14T06:55:04.783Z,461.25
2023-05-14T06:56:04.929Z,466.88
2023-05-14T06:57:05.110Z,472.50
2023-05-14T06:58:05.318Z,478.12
2023-05-14T06:59:05.504Z,483.75
2023-05-14T07:00:05.671Z,483.75
2023-05-14T07:01:05.907Z,489.38
2023-05-14T07:02:06.057Z,489.38
2023-05-14T07:03:06.312Z,489.38
2023-05-14T07:04:06.485Z,495.00
2023-05-14T07:05:06.629Z,495.00
2023-05-14T07:06:06.843Z,495.00
2023-05-14T07:07:07.007Z,495.00
2023-05-14T07:08:07.191Z,489.38
2023-05-14T07:09:07.368Z,489.38
2023-05-14T07:10:07.543Z,478.12
2023-05-14T07:11:07.759Z,472.50
2023-05-14T07:12:07.896Z,472.50
2023-05-14T07:13:08.070Z,461.25
2023-05-14T07:14:08.256Z,444.38
2023-05-14T07:15:08.419Z,461.25
2023-05-14T07:16:08.641Z,461.25
2023-05-14T07:17:08.804Z,461.25
2023-05-14T07:18:09.055Z,472.50
2023-05-14T07:19:09.209Z,466.88
2023-05-14T07:20:09.381Z,461.25
2023-05-14T07:21:09.581Z,461.25
2023-05-14T07:22:09.747Z,455.62
2023-05-14T07:23:09.922Z,455.62
2023-05-14T07:24:10.138Z,461.25
2023-05-14T07:25:10.310Z,466.88
2023-05-14T07:26:10.532Z,478.12
2023-05-14T07:27:10.662Z,489.38
2023-05-14T07:28:10.849Z,495.00
2023-05-14T07:29:11.025Z,500.62
2023-05-14T07:30:11.199Z,495.00
2023-05-14T07:31:11.433Z,500.62
2023-05-14T07:32:13.967Z,506.25
2023-05-14T07:33:11.791Z,489.38
2023-05-14T07:34:11.972Z,483.75
2023-05-14T07:35:12.148Z,500.62
2023-05-14T07:36:12.345Z,495.00
2023-05-14T07:37:12.532Z,506.25
2023-05-14T07:38:12.716Z,517.50
2023-05-14T07:39:12.886Z,528.75
2023-05-14T07:40:13.071Z,540.00
2023-05-14T07:41:13.267Z,540.00
2023-05-14T07:42:21.801Z,551.25
2023-05-14T07:43:13.644Z,562.50
2023-05-14T07:44:13.854Z,562.50
2023-05-14T07:45:13.998Z,528.75
2023-05-14T07:46:14.239Z,573.75
2023-05-14T07:47:14.439Z,562.50
2023-05-14T07:48:14.798Z,551.25
2023-05-14T07:49:14.774Z,545.62
2023-05-14T07:50:14.967Z,540.00
2023-05-14T07:51:15.186Z,534.38
2023-05-14T07:52:15.322Z,545.62
2023-05-14T07:53:15.501Z,534.38
2023-05-14T07:54:15.686Z,523.12
2023-05-14T07:55:15.857Z,523.12
2023-05-14T07:56:16.094Z,517.50
2023-05-14T07:57:16.262Z,500.62
2023-05-14T07:58:16.433Z,495.00
2023-05-14T07:59:16.608Z,495.00
2023-05-14T08:00:16.820Z,506.25
2023-05-14T08:01:16.990Z,511.88
2023-05-14T08:02:17.446Z,511.88
2023-05-14T08:03:17.429Z,517.50
2023-05-14T08:04:17.613Z,523.12
2023-05-14T08:05:17.735Z,523.12
2023-05-14T08:06:17.938Z,528.75
2023-05-14T08:07:18.120Z,540.00
2023-05-14T08:08:18.299Z,556.88
2023-05-14T08:09:18.530Z,573.75
2023-05-14T08:10:18.693Z,590.62
2023-05-14T08:11:18.996Z,613.12
2023-05-14T08:12:19.091Z,630.00
2023-05-14T08:13:19.269Z,652.50
2023-05-14T08:14:19.476Z,675.00
2023-05-14T08:15:19.663Z,697.50
2023-05-14T08:16:19.910Z,708.75
2023-05-14T08:17:20.033Z,720.00
2023-05-14T08:18:20.226Z,736.88
2023-05-14T08:19:20.430Z,742.50
2023-05-14T08:20:20.635Z,742.50
2023-05-14T08:21:20.837Z,759.38
2023-05-14T08:22:21.018Z,753.75
2023-05-14T08:23:21.218Z,759.38
2023-05-14T08:24:21.403Z,748.12
2023-05-14T08:25:21.632Z,765.00
2023-05-14T08:26:21.832Z,748.12
2023-05-14T08:27:21.993Z,731.25
2023-05-14T08:28:22.199Z,725.62
2023-05-14T08:29:22.424Z,731.25
2023-05-14T08:30:23.061Z,753.75
2023-05-14T08:31:22.920Z,770.62
2023-05-14T08:32:24.150Z,787.50
2023-05-14T08:33:23.180Z,798.75
2023-05-14T08:34:23.381Z,810.00
2023-05-14T08:35:23.586Z,804.38
2023-05-14T08:36:23.795Z,798.75
2023-05-14T08:37:24.005Z,804.38
2023-05-14T08:38:24.196Z,838.12
2023-05-14T08:39:24.392Z,832.50
2023-05-14T08:40:24.773Z,815.62
2023-05-14T08:41:24.783Z,810.00
2023-05-14T08:42:24.980Z,804.38
2023-05-14T08:43:25.163Z,793.12
2023-05-14T08:44:25.352Z,781.88
2023-05-14T08:45:25.554Z,798.75
2023-05-14T08:46:25.778Z,804.38
2023-05-14T08:47:26.003Z,776.25
2023-05-14T08:48:26.247Z,742.50
2023-05-14T08:49:26.343Z,753.75
2023-05-14T08:50:26.687Z,714.38
2023-05-14T08:51:26.783Z,630.00
2023-05-14T08:52:26.931Z,652.50
2023-05-14T08:53:27.114Z,697.50
2023-05-14T08:54:27.316Z,686.25
2023-05-14T08:55:27.502Z,708.75
2023-05-14T08:56:27.725Z,703.12
2023-05-14T08:57:27.894Z,714.38
2023-05-14T08:58:28.076Z,697.50
2023-05-14T08:59:28.283Z,691.88
2023-05-14T09:00:28.528Z,686.25
2023-05-14T09:01:28.781Z,675.00
2023-05-14T09:02:28.882Z,675.00
2023-05-14T09:03:29.203Z,703.12
2023-05-14T09:04:29.244Z,686.25
2023-05-14T09:05:29.451Z,714.38
2023-05-14T09:06:29.682Z,714.38
2023-05-14T09:07:29.849Z,703.12
2023-05-14T09:08:30.065Z,725.62
2023-05-14T09:09:30.242Z,826.88
2023-05-14T09:10:30.462Z,1018.12
2023-05-14T09:11:30.663Z,1147.50
2023-05-14T09:12:30.836Z,1153.12
2023-05-14T09:13:31.029Z,1203.75
2023-05-14T09:14:31.199Z,1186.88
2023-05-14T09:15:31.422Z,1141.88
2023-05-14T09:16:31.632Z,1125.00
2023-05-14T09:17:31.828Z,1147.50
2023-05-14T09:18:32.028Z,1198.12
2023-05-14T09:19:32.164Z,1192.50
2023-05-14T09:20:32.386Z,1119.38
2023-05-14T09:21:33.603Z,1141.88
2023-05-14T09:22:32.759Z,1130.62
2023-05-14T09:23:33.011Z,1158.75
2023-05-14T09:24:33.206Z,1215.00
2023-05-14T09:25:33.387Z,2998.12
2023-05-14T09:26:33.623Z,4651.88
2023-05-14T09:27:33.871Z,545.62
2023-05-14T09:28:34.003Z,1743.75
2023-05-14T09:29:34.249Z,1597.50
2023-05-14T09:30:34.420Z,2120.62
2023-05-14T09:31:34.655Z,2199.38
2023-05-14T09:32:34.843Z,2716.88
2023-05-14T09:33:35.027Z,2711.25
2023-05-14T09:34:35.266Z,990.00
2023-05-14T09:35:35.433Z,1035.00
2023-05-14T09:36:35.647Z,905.62
2023-05-14T09:37:35.838Z,826.88
2023-05-14T09:38:36.046Z,1980.00
2023-05-14T09:39:36.283Z,3178.12
2023-05-14T09:40:36.468Z,1423.12
2023-05-14T09:41:36.727Z,1012.50
2023-05-14T09:42:36.866Z,1119.38
2023-05-14T09:43:37.079Z,1721.25
2023-05-14T09:44:37.317Z,2536.88
2023-05-14T09:45:37.503Z,2559.38
2023-05-14T09:46:37.726Z,1080.00
2023-05-14T09:47:37.968Z,855.00
2023-05-14T09:48:38.178Z,849.38
2023-05-14T09:49:38.299Z,900.00
2023-05-14T09:50:38.493Z,1046.25
2023-05-14T09:51:38.730Z,1822.50
2023-05-14T09:52:38.916Z,1299.38
2023-05-14T09:53:39.113Z,1001.25
2023-05-14T09:54:39.362Z,900.00
2023-05-14T09:55:39.523Z,770.62
2023-05-14T09:56:39.735Z,888.75
2023-05-14T09:57:39.942Z,1440.00
2023-05-14T09:58:40.153Z,2784.38
2023-05-14T09:59:40.363Z,1884.38
2023-05-14T10:00:40.568Z,2137.50
2023-05-14T10:01:40.829Z,2137.50
2023-05-14T10:02:41.152Z,2649.38
2023-05-14T10:03:41.188Z,2835.00
2023-05-14T10:04:41.447Z,3121.88
2023-05-14T10:05:41.575Z,2295.00
2023-05-14T10:06:41.847Z,2435.62
2023-05-14T10:07:42.019Z,3240.00
2023-05-14T10:08:42.175Z,3138.75
2023-05-14T10:09:42.396Z,939.38
2023-05-14T10:10:42.589Z,900.00
2023-05-14T10:11:42.806Z,1035.00
2023-05-14T10:12:42.982Z,2626.88
2023-05-14T10:13:43.199Z,3420.00
2023-05-14T10:14:43.414Z,2655.00
2023-05-14T10:15:43.619Z,2272.50
2023-05-14T10:16:43.865Z,2711.25
2023-05-14T10:17:44.113Z,2233.12
2023-05-14T10:18:44.260Z,1929.38
2023-05-14T10:19:44.448Z,2469.38
2023-05-14T10:20:44.650Z,2323.12
2023-05-14T10:21:44.851Z,1738.12
2023-05-14T10:22:45.036Z,2379.38
2023-05-14T10:23:45.235Z,2728.12
2023-05-14T10:24:45.460Z,2986.88
2023-05-14T10:25:45.640Z,1091.25
2023-05-14T10:26:45.866Z,1226.25
2023-05-14T10:27:46.058Z,3313.12
2023-05-14T10:28:46.232Z,3268.12
2023-05-14T10:29:46.424Z,967.50
2023-05-14T10:30:46.737Z,967.50
2023-05-14T10:31:47.082Z,3110.62
2023-05-14T10:32:47.041Z,3206.25
2023-05-14T10:33:47.181Z,1057.50
2023-05-14T10:34:47.374Z,1035.00
2023-05-14T10:35:47.588Z,1108.12
2023-05-14T10:36:47.802Z,1254.38
2023-05-14T10:37:48.015Z,3521.25
2023-05-14T10:38:48.225Z,3318.75
2023-05-14T10:39:48.452Z,2953.12
2023-05-14T10:40:48.635Z,3515.62
2023-05-14T10:41:48.852Z,2632.50
2023-05-14T10:42:49.078Z,2761.88
2023-05-14T10:43:49.293Z,2716.88
2023-05-14T10:44:49.539Z,3436.88
2023-05-14T10:45:49.713Z,3420.00
2023-05-14T10:46:49.957Z,1530.00
2023-05-14T10:47:50.165Z,2553.75
2023-05-14T10:48:50.325Z,3684.38
2023-05-14T10:49:50.539Z,3723.75
2023-05-14T10:50:50.755Z,3723.75
2023-05-14T10:51:50.897Z,3543.75
2023-05-14T10:52:51.127Z,3425.62
2023-05-14T10:53:51.307Z,3420.00
2023-05-14T10:54:51.537Z,3285.00
2023-05-14T10:55:51.683Z,3594.38
2023-05-14T10:56:51.871Z,3830.62
2023-05-14T10:57:52.051Z,3622.50
2023-05-14T10:58:52.254Z,3290.62
2023-05-14T10:59:52.458Z,1153.12
2023-05-14T11:00:52.597Z,1338.75
2023-05-14T11:01:52.862Z,1158.75
2023-05-14T11:02:53.083Z,2576.25
2023-05-14T11:03:53.336Z,3403.12
2023-05-14T11:04:53.445Z,3577.50
2023-05-14T11:05:53.641Z,3588.75
2023-05-14T11:06:53.862Z,3616.88
2023-05-14T11:07:54.002Z,1260.00
2023-05-14T11:08:54.213Z,1839.38
2023-05-14T11:09:54.492Z,3543.75
2023-05-14T11:10:54.626Z,3487.50
2023-05-14T11:11:54.848Z,1102.50
2023-05-14T11:12:55.096Z,928.12
2023-05-14T11:13:55.281Z,928.12
2023-05-14T11:14:55.502Z,1243.12
2023-05-14T11:15:55.710Z,3526.88
2023-05-14T11:16:55.935Z,3594.38
2023-05-14T11:17:56.124Z,3133.12
2023-05-14T11:18:56.277Z,1816.88
2023-05-14T11:19:56.493Z,1513.12
2023-05-14T11:20:56.739Z,1091.25
2023-05-14T11:21:56.904Z,1046.25
2023-05-14T11:22:57.109Z,1136.25
2023-05-14T11:23:57.331Z,888.75
2023-05-14T11:24:57.568Z,826.88
2023-05-14T11:25:57.733Z,759.38
2023-05-14T11:26:57.897Z,714.38
2023-05-14T11:27:58.090Z,686.25
2023-05-14T11:28:58.262Z,663.75
2023-05-14T11:29:58.471Z,652.50
2023-05-14T11:30:58.648Z,630.00
2023-05-14T11:31:58.860Z,607.50
2023-05-14T11:33:01.764Z,596.25
2023-05-14T11:33:59.237Z,585.00
2023-05-14T11:34:59.449Z,585.00
2023-05-14T11:35:59.593Z,607.50
2023-05-14T11:36:59.778Z,641.25
2023-05-14T11:37:59.974Z,675.00
2023-05-14T11:39:00.191Z,691.88
2023-05-14T11:40:00.358Z,691.88
2023-05-14T11:41:00.550Z,697.50
2023-05-14T11:42:00.749Z,708.75
2023-05-14T11:43:00.924Z,714.38
2023-05-14T11:44:01.114Z,736.88
2023-05-14T11:45:01.333Z,765.00
2023-05-14T11:46:01.529Z,798.75
2023-05-14T11:47:01.699Z,843.75
2023-05-14T11:48:01.954Z,843.75
2023-05-14T11:49:02.081Z,843.75
2023-05-14T11:50:02.304Z,826.88
2023-05-14T11:51:02.455Z,821.25
2023-05-14T11:52:02.661Z,804.38
2023-05-14T11:53:02.893Z,793.12
2023-05-14T11:54:03.076Z,798.75
2023-05-14T11:55:03.355Z,793.12
2023-05-14T11:56:03.486Z,804.38
2023-05-14T11:57:03.690Z,815.62
2023-05-14T11:58:03.890Z,826.88
2023-05-14T11:59:04.119Z,843.75
2023-05-14T12:00:04.443Z,855.00
2023-05-14T12:01:04.500Z,894.38
2023-05-14T12:02:04.753Z,939.38
2023-05-14T12:03:04.981Z,973.12
2023-05-14T12:04:05.190Z,1012.50
2023-05-14T12:05:05.306Z,1057.50
2023-05-14T12:06:05.490Z,1108.12
2023-05-14T12:07:05.653Z,1136.25
2023-05-14T12:08:05.869Z,1164.38
2023-05-14T12:09:06.090Z,1186.88
2023-05-14T12:10:06.320Z,1209.38
2023-05-14T12:11:06.501Z,1226.25
2023-05-14T12:12:06.708Z,1231.88
2023-05-14T12:13:06.907Z,1186.88
2023-05-14T12:14:07.098Z,1231.88
2023-05-14T12:15:07.321Z,1355.62
2023-05-14T12:16:07.530Z,1805.62
2023-05-14T12:17:07.699Z,1788.75
2023-05-14T12:19:08.150Z,2688.75
2023-05-14T12:20:08.331Z,2705.62
2023-05-14T12:21:08.577Z,1170.00
2023-05-14T12:22:08.693Z,1001.25
2023-05-14T12:23:08.893Z,945.00
2023-05-14T12:24:09.318Z,945.00
2023-05-14T12:25:09.339Z,950.62
2023-05-14T12:26:09.498Z,978.75
2023-05-14T12:27:09.663Z,1164.38
2023-05-14T12:28:09.838Z,3290.62
2023-05-14T12:29:10.035Z,1473.75
2023-05-14T12:31:10.526Z,1141.88
2023-05-14T12:32:10.703Z,1080.00
2023-05-14T12:33:10.945Z,1063.12
2023-05-14T12:34:11.085Z,1023.75
2023-05-14T12:35:11.316Z,978.75
2023-05-14T12:36:21.355Z,939.38
2023-05-14T12:37:11.688Z,973.12
2023-05-14T12:38:11.902Z,2120.62
2023-05-14T12:39:12.123Z,3223.12
2023-05-14T12:40:12.333Z,3161.25
2023-05-14T12:41:12.496Z,1766.25
2023-05-14T12:42:12.690Z,1867.50